sensor_id;sensor_type;location;lat;lon;timestamp;pressure;altitude;pressure_sealevel;temperature;humidity
55490;BME280;44029;52.956;4.772;2023-05-12T00:02:08;102074.19;;;13.17;100.00
55490;BME280;44029;52.956;4.772;2023-05-12T00:04:34;102075.50;;;13.14;100.00
55490;BME280;44029;52.956;4.772;2023-05-12T00:07:00;102089.44;;;12.89;100.00
55490;BME280;44029;52.956;4.772;2023-05-12T00:09:25;102071.88;;;12.90;100.00
55490;BME280;44029;52.956;4.772;2023-05-12T00:11:51;102069.75;;;13.04;100.00
55490;BME280;44029;52.956;4.772;2023-05-12T00:14:17;102076.66;;;12.83;100.00
55490;BME280;44029;52.956;4.772;2023-05-12T00:16:42;102082.50;;;12.87;100.00
55490;BME280;44029;52.956;4.772;2023-05-12T00:19:07;102072.19;;;12.82;100.00
55490;BME280;44029;52.956;4.772;2023-05-12T00:21:33;102080.38;;;12.89;100.00
55490;BME280;44029;52.956;4.772;2023-05-12T00:23:59;102084.28;;;12.81;100.00
55490;BME280;44029;52.956;4.772;2023-05-12T00:26:24;102083.44;;;12.81;100.00
55490;BME280;44029;52.956;4.772;2023-05-12T00:28:49;102079.03;;;12.91;100.00
55490;BME280;44029;52.956;4.772;2023-05-12T00:31:15;102066.75;;;12.94;100.00
55490;BME280;44029;52.956;4.772;2023-05-12T00:33:40;102065.66;;;12.95;100.00
55490;BME280;44029;52.956;4.772;2023-05-12T00:36:07;102067.22;;;13.03;100.00
55490;BME280;44029;52.956;4.772;2023-05-12T00:38:32;102073.34;;;13.05;100.00
55490;BME280;44029;52.956;4.772;2023-05-12T00:40:59;102069.97;;;12.91;100.00
55490;BME280;44029;52.956;4.772;2023-05-12T00:43:24;102068.03;;;12.91;100.00
55490;BME280;44029;52.956;4.772;2023-05-12T00:45:50;102075.22;;;12.92;100.00
55490;BME280;44029;52.956;4.772;2023-05-12T00:48:15;102068.41;;;12.95;100.00
55490;BME280;44029;52.956;4.772;2023-05-12T00:50:41;102069.44;;;12.82;100.00
55490;BME280;44029;52.956;4.772;2023-05-12T00:53:06;102068.91;;;12.92;100.00
55490;BME280;44029;52.956;4.772;2023-05-12T00:55:32;102058.97;;;13.03;100.00
55490;BME280;44029;52.956;4.772;2023-05-12T00:57:58;102061.97;;;13.01;100.00
55490;BME280;44029;52.956;4.772;2023-05-12T01:00:23;102061.25;;;12.94;100.00
55490;BME280;44029;52.956;4.772;2023-05-12T01:02:49;102061.25;;;12.94;100.00
55490;BME280;44029;52.956;4.772;2023-05-12T01:05:14;102054.34;;;13.15;100.00
55490;BME280;44029;52.956;4.772;2023-05-12T01:07:41;102055.97;;;13.04;100.00
55490;BME280;44029;52.956;4.772;2023-05-12T01:10:24;102053.28;;;13.16;100.00
55490;BME280;44029;52.956;4.772;2023-05-12T01:12:49;102050.63;;;12.98;100.00
55490;BME280;44029;52.956;4.772;2023-05-12T01:15:16;102043.19;;;12.98;100.00
55490;BME280;44029;52.956;4.772;2023-05-12T01:17:46;102057.19;;;12.96;100.00
55490;BME280;44029;52.956;4.772;2023-05-12T01:20:15;102043.19;;;12.98;100.00
55490;BME280;44029;52.956;4.772;2023-05-12T01:22:42;102046.41;;;12.95;100.00
55490;BME280;44029;52.956;4.772;2023-05-12T01:25:10;102049.66;;;12.92;100.00
55490;BME280;44029;52.956;4.772;2023-05-12T01:27:37;102048.91;;;12.96;100.00
55490;BME280;44029;52.956;4.772;2023-05-12T01:30:04;102053.22;;;12.92;100.00
55490;BME280;44029;52.956;4.772;2023-05-12T01:32:30;102045.06;;;12.74;100.00
55490;BME280;44029;52.956;4.772;2023-05-12T01:34:56;102045.78;;;12.81;100.00
55490;BME280;44029;52.956;4.772;2023-05-12T01:37:21;102040.88;;;12.83;100.00
55490;BME280;44029;52.956;4.772;2023-05-12T01:39:47;102044.84;;;12.87;100.00
55490;BME280;44029;52.956;4.772;2023-05-12T01:42:13;102034.81;;;12.93;100.00
55490;BME280;44029;52.956;4.772;2023-05-12T01:44:38;102045.66;;;12.76;100.00
55490;BME280;44029;52.956;4.772;2023-05-12T01:47:04;102057.31;;;12.60;100.00
55490;BME280;44029;52.956;4.772;2023-05-12T01:49:29;102051.66;;;12.85;100.00
55490;BME280;44029;52.956;4.772;2023-05-12T01:51:54;102052.94;;;12.82;100.00
55490;BME280;44029;52.956;4.772;2023-05-12T01:54:20;102061.28;;;12.64;100.00
55490;BME280;44029;52.956;4.772;2023-05-12T01:56:45;102051.63;;;12.73;100.00
55490;BME280;44029;52.956;4.772;2023-05-12T01:59:10;102054.38;;;12.73;100.00
55490;BME280;44029;52.956;4.772;2023-05-12T02:01:36;102060.72;;;12.73;100.00
55490;BME280;44029;52.956;4.772;2023-05-12T02:04:02;102052.13;;;12.93;100.00
55490;BME280;44029;52.956;4.772;2023-05-12T02:06:28;102061.09;;;12.77;100.00
55490;BME280;44029;52.956;4.772;2023-05-12T02:08:53;102062.16;;;12.76;100.00
55490;BME280;44029;52.956;4.772;2023-05-12T02:11:19;102050.56;;;12.74;100.00
55490;BME280;44029;52.956;4.772;2023-05-12T02:13:45;102056.28;;;12.72;100.00
55490;BME280;44029;52.956;4.772;2023-05-12T02:16:10;102046.25;;;12.78;100.00
55490;BME280;44029;52.956;4.772;2023-05-12T02:18:36;102047.06;;;12.67;100.00
55490;BME280;44029;52.956;4.772;2023-05-12T02:21:01;102051.91;;;12.83;100.00
55490;BME280;44029;52.956;4.772;2023-05-12T02:23:26;102045.00;;;12.62;100.00
55490;BME280;44029;52.956;4.772;2023-05-12T02:25:52;102047.44;;;12.82;100.00
55490;BME280;44029;52.956;4.772;2023-05-12T02:28:17;102053.44;;;12.79;100.00
55490;BME280;44029;52.956;4.772;2023-05-12T02:30:48;102042.09;;;12.99;100.00
55490;BME280;44029;52.956;4.772;2023-05-12T02:33:17;102044.47;;;12.84;100.00
55490;BME280;44029;52.956;4.772;2023-05-12T02:35:43;102035.69;;;12.63;100.00
55490;BME280;44029;52.956;4.772;2023-05-12T02:38:09;102039.41;;;12.69;100.00
55490;BME280;44029;52.956;4.772;2023-05-12T02:40:34;102032.50;;;12.66;100.00
55490;BME280;44029;52.956;4.772;2023-05-12T02:42:59;102029.63;;;12.73;100.00
55490;BME280;44029;52.956;4.772;2023-05-12T02:45:25;102042.25;;;12.62;100.00
55490;BME280;44029;52.956;4.772;2023-05-12T02:47:50;102038.31;;;12.58;100.00
55490;BME280;44029;52.956;4.772;2023-05-12T02:50:16;102027.22;;;12.65;100.00
55490;BME280;44029;52.956;4.772;2023-05-12T02:52:41;102034.28;;;12.72;100.00
55490;BME280;44029;52.956;4.772;2023-05-12T02:55:07;102032.28;;;12.80;100.00
55490;BME280;44029;52.956;4.772;2023-05-12T02:57:32;102041.34;;;12.68;100.00
55490;BME280;44029;52.956;4.772;2023-05-12T03:00:02;102025.81;;;12.86;100.00
55490;BME280;44029;52.956;4.772;2023-05-12T03:02:34;102038.16;;;12.83;100.00
55490;BME280;44029;52.956;4.772;2023-05-12T03:05:00;102027.81;;;12.67;100.00
55490;BME280;44029;52.956;4.772;2023-05-12T03:07:25;102021.25;;;12.68;100.00
55490;BME280;44029;52.956;4.772;2023-05-12T03:09:51;102037.03;;;12.72;100.00
55490;BME280;44029;52.956;4.772;2023-05-12T03:12:16;102037.69;;;12.86;100.00
55490;BME280;44029;52.956;4.772;2023-05-12T03:14:42;102038.47;;;12.75;100.00
55490;BME280;44029;52.956;4.772;2023-05-12T03:17:07;102037.03;;;12.72;100.00
55490;BME280;44029;52.956;4.772;2023-05-12T03:19:32;102041.72;;;12.72;100.00
55490;BME280;44029;52.956;4.772;2023-05-12T03:21:59;102046.13;;;12.73;100.00
55490;BME280;44029;52.956;4.772;2023-05-12T03:24:25;102043.28;;;12.80;100.00
55490;BME280;44029;52.956;4.772;2023-05-12T03:26:50;102055.22;;;12.73;100.00
55490;BME280;44029;52.956;4.772;2023-05-12T03:29:15;102049.09;;;12.71;100.00
55490;BME280;44029;52.956;4.772;2023-05-12T03:31:41;102054.13;;;12.74;100.00
55490;BME280;44029;52.956;4.772;2023-05-12T03:34:06;102051.97;;;12.65;100.00
55490;BME280;44029;52.956;4.772;2023-05-12T03:36:32;102047.09;;;12.79;100.00
55490;BME280;44029;52.956;4.772;2023-05-12T03:38:57;102047.69;;;12.81;100.00
55490;BME280;44029;52.956;4.772;2023-05-12T03:41:22;102041.03;;;12.88;100.00
55490;BME280;44029;52.956;4.772;2023-05-12T03:43:48;102044.94;;;12.81;100.00
55490;BME280;44029;52.956;4.772;2023-05-12T03:46:13;102049.53;;;12.99;100.00
55490;BME280;44029;52.956;4.772;2023-05-12T03:48:39;102046.28;;;12.90;100.00
55490;BME280;44029;52.956;4.772;2023-05-12T03:51:04;102050.84;;;12.96;100.00
55490;BME280;44029;52.956;4.772;2023-05-12T03:53:30;102039.72;;;12.91;100.00
55490;BME280;44029;52.956;4.772;2023-05-12T03:55:55;102047.13;;;12.90;100.00
55490;BME280;44029;52.956;4.772;2023-05-12T03:58:21;102056.56;;;12.94;100.00
55490;BME280;44029;52.956;4.772;2023-05-12T04:00:47;102054.53;;;12.90;100.00
55490;BME280;44029;52.956;4.772;2023-05-12T04:03:14;102050.19;;;12.82;100.00
55490;BME280;44029;52.956;4.772;2023-05-12T04:05:40;102063.03;;;12.88;100.00
55490;BME280;44029;52.956;4.772;2023-05-12T04:08:09;102053.38;;;12.98;100.00
55490;BME280;44029;52.956;4.772;2023-05-12T04:10:38;102047.88;;;13.21;100.00
55490;BME280;44029;52.956;4.772;2023-05-12T04:13:04;102044.84;;;12.99;100.00
55490;BME280;44029;52.956;4.772;2023-05-12T04:15:30;102051.91;;;12.95;100.00
55490;BME280;44029;52.956;4.772;2023-05-12T04:17:56;102062.44;;;12.98;100.00
55490;BME280;44029;52.956;4.772;2023-05-12T04:20:21;102048.94;;;13.08;100.00
55490;BME280;44029;52.956;4.772;2023-05-12T04:22:47;102050.03;;;13.07;100.00
55490;BME280;44029;52.956;4.772;2023-05-12T04:25:12;102048.13;;;13.20;100.00
55490;BME280;44029;52.956;4.772;2023-05-12T04:27:37;102045.84;;;13.28;100.00
55490;BME280;44029;52.956;4.772;2023-05-12T04:30:03;102054.09;;;13.17;100.00
55490;BME280;44029;52.956;4.772;2023-05-12T04:32:28;102052.41;;;13.15;100.00
55490;BME280;44029;52.956;4.772;2023-05-12T04:34:54;102036.84;;;13.21;100.00
55490;BME280;44029;52.956;4.772;2023-05-12T04:37:20;102050.16;;;13.24;100.00
55490;BME280;44029;52.956;4.772;2023-05-12T04:39:46;102046.94;;;13.27;100.00
55490;BME280;44029;52.956;4.772;2023-05-12T04:42:12;102058.78;;;13.28;100.00
55490;BME280;44029;52.956;4.772;2023-05-12T04:44:37;102056.16;;;13.45;100.00
55490;BME280;44029;52.956;4.772;2023-05-12T04:47:03;102059.75;;;13.45;100.00
55490;BME280;44029;52.956;4.772;2023-05-12T04:49:28;102058.19;;;13.38;100.00
55490;BME280;44029;52.956;4.772;2023-05-12T04:51:53;102084.66;;;13.39;100.00
55490;BME280;44029;52.956;4.772;2023-05-12T04:54:19;102088.59;;;13.54;100.00
55490;BME280;44029;52.956;4.772;2023-05-12T04:56:44;102075.44;;;13.57;100.00
55490;BME280;44029;52.956;4.772;2023-05-12T04:59:09;102078.53;;;13.60;100.00
55490;BME280;44029;52.956;4.772;2023-05-12T05:01:35;102079.03;;;13.45;100.00
55490;BME280;44029;52.956;4.772;2023-05-12T05:04:01;102100.34;;;13.38;100.00
55490;BME280;44029;52.956;4.772;2023-05-12T05:06:26;102091.00;;;13.51;100.00
55490;BME280;44029;52.956;4.772;2023-05-12T05:08:52;102096.50;;;13.75;100.00
55490;BME280;44029;52.956;4.772;2023-05-12T05:11:19;102089.78;;;13.70;100.00
55490;BME280;44029;52.956;4.772;2023-05-12T05:13:46;102090.06;;;13.57;100.00
55490;BME280;44029;52.956;4.772;2023-05-12T05:16:11;102110.25;;;13.75;100.00
55490;BME280;44029;52.956;4.772;2023-05-12T05:18:37;102107.03;;;13.78;100.00
55490;BME280;44029;52.956;4.772;2023-05-12T05:21:02;102098.28;;;13.69;100.00
55490;BME280;44029;52.956;4.772;2023-05-12T05:23:27;102105.72;;;13.80;100.00
55490;BME280;44029;52.956;4.772;2023-05-12T05:25:53;102100.31;;;13.85;100.00
55490;BME280;44029;52.956;4.772;2023-05-12T05:28:18;102108.31;;;13.99;100.00
55490;BME280;44029;52.956;4.772;2023-05-12T05:30:43;102115.75;;;13.98;100.00
55490;BME280;44029;52.956;4.772;2023-05-12T05:33:09;102121.84;;;14.00;100.00
55490;BME280;44029;52.956;4.772;2023-05-12T05:35:36;102111.22;;;13.92;100.00
55490;BME280;44029;52.956;4.772;2023-05-12T05:38:02;102124.50;;;13.95;100.00
55490;BME280;44029;52.956;4.772;2023-05-12T05:40:27;102103.50;;;14.18;100.00
55490;BME280;44029;52.956;4.772;2023-05-12T05:42:53;102122.88;;;14.23;100.00
55490;BME280;44029;52.956;4.772;2023-05-12T05:45:18;102118.84;;;14.14;100.00
55490;BME280;44029;52.956;4.772;2023-05-12T05:47:43;102124.72;;;13.93;100.00
55490;BME280;44029;52.956;4.772;2023-05-12T05:50:10;102105.56;;;14.10;100.00
55490;BME280;44029;52.956;4.772;2023-05-12T05:52:36;102105.56;;;14.10;100.00
55490;BME280;44029;52.956;4.772;2023-05-12T05:55:01;102111.81;;;13.94;100.00
55490;BME280;44029;52.956;4.772;2023-05-12T05:57:27;102124.81;;;14.22;100.00
55490;BME280;44029;52.956;4.772;2023-05-12T05:59:52;102106.97;;;14.13;100.00
55490;BME280;44029;52.956;4.772;2023-05-12T06:02:18;102124.34;;;14.14;100.00
55490;BME280;44029;52.956;4.772;2023-05-12T06:04:47;102097.78;;;14.07;100.00
55490;BME280;44029;52.956;4.772;2023-05-12T06:07:12;102121.06;;;14.28;100.00
55490;BME280;44029;52.956;4.772;2023-05-12T06:09:38;102115.22;;;14.25;100.00
55490;BME280;44029;52.956;4.772;2023-05-12T06:12:03;102123.41;;;14.20;100.00
55490;BME280;44029;52.956;4.772;2023-05-12T06:14:28;102115.44;;;14.35;100.00
55490;BME280;44029;52.956;4.772;2023-05-12T06:16:54;102125.41;;;14.36;100.00
55490;BME280;44029;52.956;4.772;2023-05-12T06:19:19;102131.38;;;14.33;100.00
55490;BME280;44029;52.956;4.772;2023-05-12T06:21:45;102135.97;;;14.27;100.00
55490;BME280;44029;52.956;4.772;2023-05-12T06:24:10;102140.63;;;14.27;100.00
55490;BME280;44029;52.956;4.772;2023-05-12T06:26:36;102126.34;;;14.42;100.00
55490;BME280;44029;52.956;4.772;2023-05-12T06:29:04;102130.09;;;14.24;100.00
55490;BME280;44029;52.956;4.772;2023-05-12T06:31:30;102120.66;;;14.48;100.00
55490;BME280;44029;52.956;4.772;2023-05-12T06:33:55;102134.34;;;14.43;100.00
55490;BME280;44029;52.956;4.772;2023-05-12T06:36:20;102135.88;;;14.63;100.00
55490;BME280;44029;52.956;4.772;2023-05-12T06:38:46;102142.13;;;14.46;100.00
55490;BME280;44029;52.956;4.772;2023-05-12T06:41:12;102127.84;;;14.61;100.00
55490;BME280;44029;52.956;4.772;2023-05-12T06:43:37;102119.09;;;14.64;100.00
55490;BME280;44029;52.956;4.772;2023-05-12T06:46:03;102119.50;;;14.73;100.00
55490;BME280;44029;52.956;4.772;2023-05-12T06:48:28;102126.00;;;14.67;100.00
55490;BME280;44029;52.956;4.772;2023-05-12T06:50:53;102115.22;;;14.65;100.00
55490;BME280;44029;52.956;4.772;2023-05-12T06:53:19;102123.84;;;14.69;100.00
55490;BME280;44029;52.956;4.772;2023-05-12T06:55:44;102124.00;;;14.50;100.00
55490;BME280;44029;52.956;4.772;2023-05-12T06:58:10;102134.09;;;14.85;100.00
55490;BME280;44029;52.956;4.772;2023-05-12T07:00:35;102146.31;;;14.89;100.00
55490;BME280;44029;52.956;4.772;2023-05-12T07:03:01;102133.22;;;14.68;100.00
55490;BME280;44029;52.956;4.772;2023-05-12T07:05:26;102138.56;;;14.75;100.00
55490;BME280;44029;52.956;4.772;2023-05-12T07:07:52;102147.72;;;14.75;100.00
55490;BME280;44029;52.956;4.772;2023-05-12T07:10:17;102141.38;;;14.92;100.00
55490;BME280;44029;52.956;4.772;2023-05-12T07:12:44;102138.97;;;14.66;100.00
55490;BME280;44029;52.956;4.772;2023-05-12T07:15:10;102151.84;;;14.61;100.00
55490;BME280;44029;52.956;4.772;2023-05-12T07:17:35;102151.81;;;14.89;100.00
55490;BME280;44029;52.956;4.772;2023-05-12T07:20:01;102150.53;;;14.80;100.00
55490;BME280;44029;52.956;4.772;2023-05-12T07:22:27;102150.13;;;14.72;100.00
55490;BME280;44029;52.956;4.772;2023-05-12T07:24:53;102148.06;;;14.79;100.00
55490;BME280;44029;52.956;4.772;2023-05-12T07:27:18;102133.53;;;15.00;100.00
55490;BME280;44029;52.956;4.772;2023-05-12T07:29:44;102150.75;;;14.91;100.00
55490;BME280;44029;52.956;4.772;2023-05-12T07:32:09;102150.75;;;14.91;100.00
55490;BME280;44029;52.956;4.772;2023-05-12T07:34:34;102145.75;;;15.04;100.00
55490;BME280;44029;52.956;4.772;2023-05-12T07:37:00;102141.28;;;14.86;100.00
55490;BME280;44029;52.956;4.772;2023-05-12T07:39:27;102153.16;;;15.33;100.00
55490;BME280;44029;52.956;4.772;2023-05-12T07:41:53;102144.53;;;15.12;100.00
55490;BME280;44029;52.956;4.772;2023-05-12T07:44:19;102147.72;;;14.75;100.00
55490;BME280;44029;52.956;4.772;2023-05-12T07:46:44;102164.91;;;14.82;100.00
55490;BME280;44029;52.956;4.772;2023-05-12T07:49:10;102147.09;;;15.02;100.00
55490;BME280;44029;52.956;4.772;2023-05-12T07:51:35;102149.63;;;15.20;100.00
55490;BME280;44029;52.956;4.772;2023-05-12T07:54:01;102153.75;;;14.89;100.00
55490;BME280;44029;52.956;4.772;2023-05-12T07:56:26;102150.78;;;15.24;100.00
55490;BME280;44029;52.956;4.772;2023-05-12T07:58:52;102155.72;;;15.22;100.00
55490;BME280;44029;52.956;4.772;2023-05-12T08:01:17;102157.53;;;15.45;100.00
55490;BME280;44029;52.956;4.772;2023-05-12T08:03:42;102166.19;;;15.54;100.00
55490;BME280;44029;52.956;4.772;2023-05-12T08:06:08;102167.31;;;15.53;100.00
55490;BME280;44029;52.956;4.772;2023-05-12T08:08:33;102152.47;;;15.59;100.00
55490;BME280;44029;52.956;4.772;2023-05-12T08:11:00;102153.59;;;15.58;100.00
55490;BME280;44029;52.956;4.772;2023-05-12T08:13:25;102153.31;;;15.60;100.00
55490;BME280;44029;52.956;4.772;2023-05-12T08:15:51;102150.88;;;15.63;100.00
55490;BME280;44029;52.956;4.772;2023-05-12T08:18:16;102162.50;;;15.65;100.00
55490;BME280;44029;52.956;4.772;2023-05-12T08:20:42;102156.25;;;15.87;100.00
55490;BME280;44029;52.956;4.772;2023-05-12T08:23:07;102165.59;;;15.69;100.00
55490;BME280;44029;52.956;4.772;2023-05-12T08:25:33;102167.56;;;15.85;100.00
55490;BME280;44029;52.956;4.772;2023-05-12T08:28:00;102169.41;;;15.80;100.00
55490;BME280;44029;52.956;4.772;2023-05-12T08:30:26;102182.69;;;16.00;100.00
55490;BME280;44029;52.956;4.772;2023-05-12T08:32:52;102171.38;;;16.01;100.00
55490;BME280;44029;52.956;4.772;2023-05-12T08:35:18;102157.31;;;16.03;100.00
55490;BME280;44029;52.956;4.772;2023-05-12T08:37:44;102161.91;;;16.14;100.00
55490;BME280;44029;52.956;4.772;2023-05-12T08:40:14;102150.31;;;16.39;100.00
55490;BME280;44029;52.956;4.772;2023-05-12T08:42:43;102151.03;;;16.52;100.00
55490;BME280;44029;52.956;4.772;2023-05-12T08:45:13;102160.44;;;16.29;100.00
55490;BME280;44029;52.956;4.772;2023-05-12T08:47:40;102163.97;;;16.46;100.00
55490;BME280;44029;52.956;4.772;2023-05-12T08:50:07;102172.75;;;16.65;100.00
55490;BME280;44029;52.956;4.772;2023-05-12T08:52:34;102152.06;;;16.68;100.00
55490;BME280;44029;52.956;4.772;2023-05-12T08:55:00;102162.59;;;16.71;100.00
55490;BME280;44029;52.956;4.772;2023-05-12T08:57:26;102153.94;;;16.62;100.00
55490;BME280;44029;52.956;4.772;2023-05-12T08:59:53;102167.56;;;16.91;100.00
55490;BME280;44029;52.956;4.772;2023-05-12T09:02:21;102166.00;;;17.00;100.00
55490;BME280;44029;52.956;4.772;2023-05-12T09:04:47;102164.41;;;17.09;100.00
55490;BME280;44029;52.956;4.772;2023-05-12T09:07:13;102157.78;;;17.10;100.00
55490;BME280;44029;52.956;4.772;2023-05-12T09:09:42;102151.16;;;17.44;100.00
55490;BME280;44029;52.956;4.772;2023-05-12T09:12:12;102152.09;;;16.95;100.00
55490;BME280;44029;52.956;4.772;2023-05-12T09:14:39;102166.00;;;17.65;100.00
55490;BME280;44029;52.956;4.772;2023-05-12T09:17:06;102170.66;;;17.27;100.00
55490;BME280;44029;52.956;4.772;2023-05-12T09:19:31;102170.06;;;17.19;100.00
55490;BME280;44029;52.956;4.772;2023-05-12T09:21:59;102168.06;;;17.80;100.00
55490;BME280;44029;52.956;4.772;2023-05-12T09:24:38;102176.47;;;17.57;100.00
55490;BME280;44029;52.956;4.772;2023-05-12T09:27:04;102173.72;;;17.25;100.00
55490;BME280;44029;52.956;4.772;2023-05-12T09:29:30;102172.13;;;17.67;100.00
55490;BME280;44029;52.956;4.772;2023-05-12T09:31:58;102168.94;;;17.85;100.00
55490;BME280;44029;52.956;4.772;2023-05-12T09:34:32;102170.13;;;17.94;100.00
55490;BME280;44029;52.956;4.772;2023-05-12T09:37:02;102181.13;;;17.84;100.00
55490;BME280;44029;52.956;4.772;2023-05-12T09:39:28;102174.22;;;17.54;100.00
55490;BME280;44029;52.956;4.772;2023-05-12T09:41:53;102183.44;;;17.28;100.00
55490;BME280;44029;52.956;4.772;2023-05-12T09:44:20;102182.78;;;17.48;100.00
55490;BME280;44029;52.956;4.772;2023-05-12T09:46:46;102188.47;;;17.36;100.00
55490;BME280;44029;52.956;4.772;2023-05-12T09:49:16;102198.78;;;17.13;100.00
55490;BME280;44029;52.956;4.772;2023-05-12T09:51:42;102181.53;;;17.06;100.00
55490;BME280;44029;52.956;4.772;2023-05-12T09:54:07;102190.09;;;17.32;100.00
55490;BME280;44029;52.956;4.772;2023-05-12T09:56:36;102188.19;;;17.65;100.00
55490;BME280;44029;52.956;4.772;2023-05-12T09:59:03;102188.09;;;17.54;100.00
55490;BME280;44029;52.956;4.772;2023-05-12T10:01:29;102188.69;;;17.62;100.00
55490;BME280;44029;52.956;4.772;2023-05-12T10:03:55;102195.09;;;17.62;100.00
55490;BME280;44029;52.956;4.772;2023-05-12T10:06:30;102197.16;;;17.77;100.00
55490;BME280;44029;52.956;4.772;2023-05-12T10:09:13;102202.25;;;17.58;100.00
55490;BME280;44029;52.956;4.772;2023-05-12T10:11:40;102205.50;;;17.50;100.00
55490;BME280;44029;52.956;4.772;2023-05-12T10:14:06;102200.94;;;17.66;100.00
55490;BME280;44029;52.956;4.772;2023-05-12T10:16:34;102218.25;;;17.83;100.00
55490;BME280;44029;52.956;4.772;2023-05-12T10:19:02;102201.28;;;17.74;100.00
55490;BME280;44029;52.956;4.772;2023-05-12T10:21:28;102208.63;;;17.91;100.00
55490;BME280;44029;52.956;4.772;2023-05-12T10:23:53;102212.75;;;18.26;100.00
55490;BME280;44029;52.956;4.772;2023-05-12T10:26:19;102199.69;;;18.26;100.00
55490;BME280;44029;52.956;4.772;2023-05-12T10:28:45;102205.13;;;18.06;100.00
55490;BME280;44029;52.956;4.772;2023-05-12T10:31:12;102196.63;;;18.18;100.00
55490;BME280;44029;52.956;4.772;2023-05-12T10:33:37;102198.03;;;18.25;100.00
55490;BME280;44029;52.956;4.772;2023-05-12T10:36:03;102196.53;;;17.70;100.00
55490;BME280;44029;52.956;4.772;2023-05-12T10:38:35;102202.31;;;18.48;100.00
55490;BME280;44029;52.956;4.772;2023-05-12T10:41:04;102197.31;;;18.50;100.00
55490;BME280;44029;52.956;4.772;2023-05-12T10:43:41;102199.72;;;18.89;100.00
55490;BME280;44029;52.956;4.772;2023-05-12T10:46:29;102196.06;;;18.79;100.00
55490;BME280;44029;52.956;4.772;2023-05-12T10:49:01;102204.94;;;18.23;100.00
55490;BME280;44029;52.956;4.772;2023-05-12T10:51:48;102204.03;;;18.07;100.00
55490;BME280;44029;52.956;4.772;2023-05-12T10:54:23;102214.72;;;18.35;100.00
55490;BME280;44029;52.956;4.772;2023-05-12T10:56:49;102210.28;;;18.29;100.00
55490;BME280;44029;52.956;4.772;2023-05-12T10:59:20;102199.56;;;18.53;100.00
55490;BME280;44029;52.956;4.772;2023-05-12T11:02:05;102202.94;;;18.71;100.00
55490;BME280;44029;52.956;4.772;2023-05-12T11:04:41;102209.22;;;18.41;100.00
55490;BME280;44029;52.956;4.772;2023-05-12T11:07:11;102204.16;;;18.27;100.00
55490;BME280;44029;52.956;4.772;2023-05-12T11:09:39;102202.88;;;18.45;100.00
55490;BME280;44029;52.956;4.772;2023-05-12T11:12:06;102207.44;;;18.77;100.00
55490;BME280;44029;52.956;4.772;2023-05-12T11:14:32;102203.91;;;18.34;100.00
55490;BME280;44029;52.956;4.772;2023-05-12T11:16:58;102194.06;;;18.11;100.00
55490;BME280;44029;52.956;4.772;2023-05-12T11:19:23;102213.69;;;17.99;100.00
55490;BME280;44029;52.956;4.772;2023-05-12T11:21:48;102196.03;;;17.78;100.00
55490;BME280;44029;52.956;4.772;2023-05-12T11:24:14;102204.00;;;18.02;100.00
55490;BME280;44029;52.956;4.772;2023-05-12T11:26:41;102213.38;;;18.43;100.00
55490;BME280;44029;52.956;4.772;2023-05-12T11:29:06;102205.22;;;18.16;100.00
55490;BME280;44029;52.956;4.772;2023-05-12T11:31:32;102199.75;;;18.31;100.00
55490;BME280;44029;52.956;4.772;2023-05-12T11:34:07;102205.88;;;18.39;100.00
55490;BME280;44029;52.956;4.772;2023-05-12T11:36:41;102192.09;;;18.59;100.00
55490;BME280;44029;52.956;4.772;2023-05-12T11:39:14;102201.56;;;18.15;100.00
55490;BME280;44029;52.956;4.772;2023-05-12T11:41:39;102196.47;;;17.97;100.00
55490;BME280;44029;52.956;4.772;2023-05-12T11:44:31;102189.97;;;18.82;100.00
55490;BME280;44029;52.956;4.772;2023-05-12T11:46:58;102185.84;;;18.84;100.00
55490;BME280;44029;52.956;4.772;2023-05-12T11:49:25;102189.47;;;18.90;100.00
55490;BME280;44029;52.956;4.772;2023-05-12T11:51:53;102181.34;;;18.73;100.00
55490;BME280;44029;52.956;4.772;2023-05-12T11:54:18;102189.25;;;18.44;100.00
55490;BME280;44029;52.956;4.772;2023-05-12T11:56:52;102192.34;;;18.58;100.00
55490;BME280;44029;52.956;4.772;2023-05-12T12:01:55;102190.41;;;18.53;100.00
55490;BME280;44029;52.956;4.772;2023-05-12T12:04:34;102194.56;;;18.55;100.00
55490;BME280;44029;52.956;4.772;2023-05-12T12:07:01;102197.84;;;18.42;100.00
55490;BME280;44029;52.956;4.772;2023-05-12T12:09:31;102192.34;;;18.47;100.00
55490;BME280;44029;52.956;4.772;2023-05-12T12:11:58;102183.94;;;18.37;100.00
55490;BME280;44029;52.956;4.772;2023-05-12T12:14:24;102188.06;;;18.29;100.00
55490;BME280;44029;52.956;4.772;2023-05-12T12:16:49;102195.75;;;18.12;100.00
55490;BME280;44029;52.956;4.772;2023-05-12T12:19:14;102188.25;;;18.12;100.00
55490;BME280;44029;52.956;4.772;2023-05-12T12:21:40;102193.69;;;18.40;100.00
55490;BME280;44029;52.956;4.772;2023-05-12T12:24:07;102198.09;;;18.30;100.00
55490;BME280;44029;52.956;4.772;2023-05-12T12:26:32;102192.72;;;18.19;100.00
55490;BME280;44029;52.956;4.772;2023-05-12T12:28:57;102197.44;;;18.18;100.00
55490;BME280;44029;52.956;4.772;2023-05-12T12:31:23;102199.75;;;18.31;100.00
55490;BME280;44029;52.956;4.772;2023-05-12T12:33:48;102197.22;;;18.30;100.00
55490;BME280;44029;52.956;4.772;2023-05-12T12:36:13;102192.38;;;18.10;100.00
55490;BME280;44029;52.956;4.772;2023-05-12T12:38:39;102201.13;;;17.86;100.00
55490;BME280;44029;52.956;4.772;2023-05-12T12:41:05;102199.13;;;18.24;100.00